createdAt,value
2023-07-21T04:02:35.890Z,11.59
2023-07-21T04:05:02.615Z,11.68
2023-07-21T04:07:29.149Z,11.74
2023-07-21T04:09:57.093Z,11.74
2023-07-21T04:12:23.583Z,11.77
2023-07-21T04:14:50.045Z,11.86
2023-07-21T04:17:16.873Z,11.92
2023-07-21T04:19:43.524Z,12.04
2023-07-21T04:22:10.066Z,12.16
2023-07-21T04:24:36.930Z,12.33
2023-07-21T04:27:03.853Z,12.33
2023-07-21T04:29:36.323Z,12.47
2023-07-21T04:32:03.924Z,12.64
2023-07-21T04:34:31.837Z,12.78
2023-07-21T04:36:58.573Z,12.94
2023-07-21T04:39:25.105Z,13.02
2023-07-21T04:41:51.662Z,13.14
2023-07-21T04:44:18.153Z,13.36
2023-07-21T04:46:44.707Z,13.54
2023-07-21T04:49:14.398Z,13.71
2023-07-21T04:51:40.916Z,13.74
2023-07-21T04:54:08.409Z,13.82
2023-07-21T04:56:34.871Z,13.93
2023-07-21T04:59:01.341Z,14.03
2023-07-21T05:01:27.901Z,14.13
2023-07-21T05:03:54.461Z,14.18
2023-07-21T05:06:21.049Z,14.18
2023-07-21T05:08:47.525Z,14.30
2023-07-21T05:11:14.005Z,14.36
2023-07-21T05:13:40.493Z,14.51
2023-07-21T05:16:07.198Z,14.70
2023-07-21T05:18:34.621Z,15.09
2023-07-21T05:21:01.067Z,15.39
2023-07-21T05:23:27.538Z,15.73
2023-07-21T05:26:03.561Z,15.74
2023-07-21T05:28:30.475Z,16.11
2023-07-21T05:30:58.205Z,16.21
2023-07-21T05:33:24.957Z,16.58
2023-07-21T05:35:51.528Z,16.73
2023-07-21T05:38:18.060Z,17.17
2023-07-21T05:40:44.570Z,17.43
2023-07-21T05:43:11.157Z,17.73
2023-07-21T05:45:39.375Z,17.96
2023-07-21T05:48:06.733Z,17.46
2023-07-21T05:50:37.247Z,17.68
2023-07-21T05:53:03.705Z,17.75
2023-07-21T05:55:30.188Z,18.04
2023-07-21T05:57:56.750Z,18.15
2023-07-21T06:00:23.208Z,18.19
2023-07-21T06:02:49.815Z,18.37
2023-07-21T06:05:16.506Z,18.63
2023-07-21T06:07:45.149Z,18.63
2023-07-21T06:10:12.467Z,18.77
2023-07-21T06:12:39.942Z,18.45
2023-07-21T06:15:07.922Z,18.46
2023-07-21T06:17:34.414Z,18.31
2023-07-21T06:20:01.364Z,18.39
2023-07-21T06:22:28.086Z,18.10
2023-07-21T06:24:54.640Z,18.09
2023-07-21T06:27:21.089Z,18.34
2023-07-21T06:29:47.558Z,18.32
2023-07-21T06:32:13.952Z,18.24
2023-07-21T06:34:40.397Z,18.04
2023-07-21T06:37:06.920Z,18.24
2023-07-21T06:39:34.078Z,18.26
2023-07-21T06:42:00.631Z,18.35
2023-07-21T06:44:27.159Z,18.34
2023-07-21T06:46:53.943Z,18.24
2023-07-21T06:49:20.903Z,18.29
2023-07-21T06:51:47.359Z,18.18
2023-07-21T06:54:13.821Z,18.28
2023-07-21T06:56:40.356Z,18.22
2023-07-21T06:59:06.834Z,18.33
2023-07-21T07:01:33.410Z,18.23
2023-07-21T07:04:00.934Z,18.49
2023-07-21T07:06:29.812Z,18.17
2023-07-21T07:08:59.763Z,18.20
2023-07-21T07:11:26.546Z,18.37
2023-07-21T07:13:53.208Z,18.35
2023-07-21T07:16:19.680Z,18.27
2023-07-21T07:18:46.254Z,18.30
2023-07-21T07:21:14.224Z,18.18
2023-07-21T07:23:40.747Z,18.26
2023-07-21T07:26:07.678Z,18.22
2023-07-21T07:28:34.156Z,18.20
2023-07-21T07:31:05.241Z,18.31
2023-07-21T07:33:32.879Z,17.77
2023-07-21T07:36:00.795Z,17.67
2023-07-21T07:38:29.641Z,17.87
2023-07-21T07:41:04.226Z,17.92
2023-07-21T07:43:30.933Z,17.90
2023-07-21T07:46:01.028Z,18.10
2023-07-21T07:48:27.736Z,17.97
2023-07-21T07:50:54.777Z,18.13
2023-07-21T07:53:22.153Z,18.21
2023-07-21T07:55:48.691Z,18.25
2023-07-21T07:58:15.270Z,18.03
2023-07-21T08:00:48.777Z,18.15
2023-07-21T08:03:16.097Z,18.25
2023-07-21T08:05:42.672Z,18.17
2023-07-21T08:08:13.736Z,18.42
2023-07-21T08:10:42.958Z,18.52
2023-07-21T08:13:09.796Z,18.78
2023-07-21T08:15:36.746Z,18.66
2023-07-21T08:18:04.343Z,18.87
2023-07-21T08:20:31.027Z,18.81
2023-07-21T08:22:57.485Z,19.14
2023-07-21T08:25:24.169Z,19.12
2023-07-21T08:27:53.677Z,19.40
2023-07-21T08:30:20.863Z,19.51
2023-07-21T08:32:47.406Z,19.68
2023-07-21T08:35:13.915Z,19.72
2023-07-21T08:37:40.484Z,19.78
2023-07-21T08:40:08.429Z,19.84
2023-07-21T08:42:36.433Z,20.00
2023-07-21T08:45:08.358Z,20.07
2023-07-21T08:47:36.075Z,20.01
2023-07-21T08:50:05.501Z,20.18
2023-07-21T08:52:32.791Z,20.04
2023-07-21T08:54:59.285Z,20.24
2023-07-21T08:57:25.862Z,20.24
2023-07-21T08:59:55.723Z,20.33
2023-07-21T09:02:48.081Z,20.29
2023-07-21T09:05:19.007Z,20.50
2023-07-21T09:07:49.558Z,20.52
2023-07-21T09:10:31.469Z,20.79
2023-07-21T09:12:58.681Z,20.91
2023-07-21T09:15:25.289Z,20.90
2023-07-21T09:17:52.085Z,20.97
2023-07-21T09:20:21.476Z,21.04
2023-07-21T09:22:49.490Z,21.61
2023-07-21T09:25:23.711Z,21.50
2023-07-21T09:27:58.826Z,21.59
2023-07-21T09:30:25.472Z,21.76
2023-07-21T09:32:57.092Z,21.64
2023-07-21T09:35:23.860Z,21.22
2023-07-21T09:37:52.281Z,21.38
2023-07-21T09:40:28.111Z,21.41
2023-07-21T09:42:54.735Z,21.11
2023-07-21T09:45:22.276Z,21.24
2023-07-21T09:47:50.052Z,21.29
2023-07-21T09:50:16.690Z,21.21
2023-07-21T09:52:47.568Z,21.08
2023-07-21T09:55:17.760Z,21.22
2023-07-21T09:57:50.108Z,21.21
2023-07-21T10:00:18.696Z,21.25
2023-07-21T10:02:48.231Z,21.34
2023-07-21T10:05:15.453Z,21.28
2023-07-21T10:07:47.214Z,21.50
2023-07-21T10:10:14.734Z,21.56
2023-07-21T10:12:47.918Z,21.49
2023-07-21T10:15:16.386Z,21.69
2023-07-21T10:17:45.074Z,21.97
2023-07-21T10:20:13.109Z,21.97
2023-07-21T10:22:39.602Z,21.98
2023-07-21T10:25:06.288Z,22.12
2023-07-21T10:27:32.730Z,22.35
2023-07-21T10:30:22.165Z,22.56
2023-07-21T10:32:52.240Z,22.86
2023-07-21T10:35:40.667Z,23.10
2023-07-21T10:38:16.027Z,22.92
2023-07-21T10:40:43.540Z,22.86
2023-07-21T10:43:10.451Z,22.84
2023-07-21T10:45:38.491Z,22.83
2023-07-21T10:48:18.807Z,22.72
2023-07-21T10:50:52.524Z,22.65
2023-07-21T10:53:19.433Z,22.57
2023-07-21T10:55:46.593Z,22.46
2023-07-21T10:58:14.921Z,22.49
2023-07-21T11:00:52.476Z,22.42
2023-07-21T11:03:19.628Z,22.51
2023-07-21T11:05:46.375Z,22.68
2023-07-21T11:08:14.178Z,22.66
2023-07-21T11:10:43.172Z,22.83
2023-07-21T11:13:10.019Z,22.81
2023-07-21T11:15:36.666Z,22.81
2023-07-21T11:18:05.074Z,22.85
2023-07-21T11:20:31.721Z,22.65
2023-07-21T11:23:00.086Z,22.64
2023-07-21T11:25:26.715Z,22.57
2023-07-21T11:27:54.332Z,22.53
2023-07-21T11:30:21.280Z,22.29
2023-07-21T11:32:48.566Z,22.34
2023-07-21T11:35:15.237Z,22.38
2023-07-21T11:37:46.729Z,22.44
2023-07-21T11:40:19.890Z,22.47
2023-07-21T11:42:48.890Z,22.53
2023-07-21T11:45:41.279Z,22.51
2023-07-21T11:48:20.607Z,22.58
2023-07-21T11:50:55.495Z,22.57
2023-07-21T11:53:24.457Z,22.37
2023-07-21T11:55:51.394Z,22.34
2023-07-21T11:58:17.916Z,22.33
2023-07-21T12:00:45.021Z,22.28
2023-07-21T12:03:11.777Z,22.30
2023-07-21T12:05:38.451Z,21.96
2023-07-21T12:08:05.045Z,21.78
2023-07-21T12:10:31.589Z,21.70
2023-07-21T12:12:58.503Z,21.54
2023-07-21T12:15:30.529Z,21.39
2023-07-21T12:17:57.362Z,21.26
2023-07-21T12:20:24.101Z,21.21
2023-07-21T12:22:50.557Z,21.16
2023-07-21T12:25:17.096Z,21.08
2023-07-21T12:27:43.704Z,20.92
2023-07-21T12:30:10.943Z,20.78
2023-07-21T12:32:37.871Z,20.71
2023-07-21T12:35:06.289Z,20.55
2023-07-21T12:37:33.918Z,20.14
2023-07-21T12:40:01.316Z,19.88
2023-07-21T12:42:29.569Z,19.68
2023-07-21T12:44:56.285Z,19.68
2023-07-21T12:47:22.698Z,19.57
2023-07-21T12:49:49.197Z,19.60
2023-07-21T12:52:15.581Z,19.66
2023-07-21T12:54:42.382Z,19.70
2023-07-21T12:57:09.323Z,19.73
2023-07-21T12:59:35.738Z,19.67
2023-07-21T13:02:02.277Z,19.58
2023-07-21T13:04:28.866Z,19.57
2023-07-21T13:06:55.432Z,19.65
2023-07-21T13:09:22.752Z,19.66
2023-07-21T13:11:51.662Z,19.69
2023-07-21T13:14:19.522Z,19.68
2023-07-21T13:16:46.055Z,19.69
2023-07-21T13:19:13.042Z,19.76
2023-07-21T13:21:39.776Z,19.76
2023-07-21T13:24:06.253Z,19.78
2023-07-21T13:26:34.769Z,19.76
2023-07-21T13:29:01.273Z,19.76
2023-07-21T13:31:27.731Z,19.78
2023-07-21T13:33:54.243Z,19.83
2023-07-21T13:36:20.727Z,19.87
2023-07-21T13:38:47.123Z,19.95
2023-07-21T13:41:13.558Z,20.03
2023-07-21T13:43:40.006Z,20.11
2023-07-21T13:46:06.485Z,20.20
2023-07-21T13:48:33.108Z,20.23
2023-07-21T13:50:59.621Z,20.13
2023-07-21T13:53:26.077Z,20.10
2023-07-21T13:55:52.682Z,20.04
2023-07-21T13:58:19.154Z,20.11
2023-07-21T14:00:45.732Z,20.09
2023-07-21T14:03:12.280Z,20.03
2023-07-21T14:05:38.809Z,19.83
2023-07-21T14:08:05.822Z,19.86
2023-07-21T14:10:32.542Z,19.70
2023-07-21T14:12:58.947Z,19.65
2023-07-21T14:15:25.586Z,19.65
2023-07-21T14:17:52.410Z,19.71
2023-07-21T14:20:19.359Z,19.72
2023-07-21T14:22:45.878Z,19.67
2023-07-21T14:25:12.459Z,19.61
2023-07-21T14:27:40.557Z,19.57
2023-07-21T14:30:08.886Z,19.55
2023-07-21T14:32:35.487Z,19.62
2023-07-21T14:35:02.002Z,19.68
2023-07-21T14:37:28.604Z,19.80
2023-07-21T14:39:55.018Z,19.96
2023-07-21T14:42:21.435Z,20.08
2023-07-21T14:44:47.982Z,20.11
2023-07-21T14:47:14.805Z,20.15
2023-07-21T14:49:41.432Z,20.27
2023-07-21T14:52:08.515Z,20.35
2023-07-21T14:54:35.034Z,20.32
2023-07-21T14:57:01.517Z,20.39
2023-07-21T14:59:27.996Z,20.38
2023-07-21T15:01:54.445Z,20.34
2023-07-21T15:04:22.701Z,20.47
2023-07-21T15:06:49.286Z,20.48
2023-07-21T15:09:16.065Z,20.55
2023-07-21T15:11:42.652Z,20.52
2023-07-21T15:14:09.145Z,20.48
2023-07-21T15:16:35.660Z,20.52
2023-07-21T15:19:02.184Z,20.46
2023-07-21T15:21:28.647Z,20.46
2023-07-21T15:23:55.494Z,20.44
2023-07-21T15:26:22.007Z,20.45
2023-07-21T15:28:49.485Z,20.20
2023-07-21T15:31:16.041Z,20.28
2023-07-21T15:33:43.637Z,20.22
2023-07-21T15:36:10.144Z,20.25
2023-07-21T15:38:36.563Z,20.27
2023-07-21T15:41:02.974Z,20.23
2023-07-21T15:43:29.383Z,20.26
2023-07-21T15:45:55.872Z,20.29
2023-07-21T15:48:22.445Z,20.23
2023-07-21T15:50:48.894Z,20.18
2023-07-21T15:53:15.358Z,20.16
2023-07-21T15:55:41.772Z,20.18
2023-07-21T15:58:08.183Z,20.27
2023-07-21T16:00:34.569Z,20.33
2023-07-21T16:03:01.140Z,20.45
2023-07-21T16:05:27.909Z,20.50
2023-07-21T16:07:54.421Z,20.63
2023-07-21T16:10:20.917Z,20.83
2023-07-21T16:12:47.410Z,20.88
2023-07-21T16:15:14.341Z,20.53
2023-07-21T16:17:40.960Z,20.62
2023-07-21T16:20:12.277Z,20.89
2023-07-21T16:22:40.499Z,21.20
2023-07-21T16:25:08.450Z,21.55
2023-07-21T16:27:35.082Z,21.69
2023-07-21T16:30:01.725Z,21.87
2023-07-21T16:32:28.309Z,22.07
2023-07-21T16:34:54.972Z,21.73
2023-07-21T16:37:21.432Z,21.78
2023-07-21T16:39:51.127Z,21.72
2023-07-21T16:42:18.445Z,21.78
2023-07-21T16:44:44.867Z,21.86
2023-07-21T16:47:11.333Z,22.03
2023-07-21T16:49:37.872Z,21.76
2023-07-21T16:52:04.794Z,21.72
2023-07-21T16:54:31.272Z,21.41
2023-07-21T16:56:57.877Z,21.12
2023-07-21T16:59:24.380Z,20.93
2023-07-21T17:01:51.028Z,20.77
2023-07-21T17:04:17.523Z,20.46
2023-07-21T17:06:43.939Z,20.39
2023-07-21T17:09:10.402Z,20.33
2023-07-21T17:11:36.963Z,20.42
2023-07-21T17:14:03.582Z,20.37
2023-07-21T17:16:32.699Z,20.32
2023-07-21T17:18:59.660Z,20.16
2023-07-21T17:21:26.518Z,20.11
2023-07-21T17:23:53.384Z,20.09
2023-07-21T17:26:19.932Z,20.08
2023-07-21T17:28:46.475Z,20.10
2023-07-21T17:31:13.014Z,20.05
2023-07-21T17:33:39.616Z,20.05
2023-07-21T17:36:06.097Z,19.94
2023-07-21T17:38:33.798Z,19.93
2023-07-21T17:41:02.577Z,19.87
2023-07-21T17:43:31.163Z,19.86
2023-07-21T17:45:59.986Z,19.80
2023-07-21T17:48:26.506Z,19.78
2023-07-21T17:50:54.557Z,19.81
2023-07-21T17:53:21.871Z,19.83
2023-07-21T17:55:48.468Z,19.90
2023-07-21T17:58:15.884Z,19.91
2023-07-21T18:00:42.521Z,19.86
2023-07-21T18:03:10.042Z,19.79
2023-07-21T18:05:37.841Z,19.67
2023-07-21T18:08:05.598Z,19.62
2023-07-21T18:10:33.132Z,19.52
2023-07-21T18:12:59.569Z,19.45
2023-07-21T18:15:28.697Z,19.40
2023-07-21T18:17:55.180Z,19.35
2023-07-21T18:20:21.667Z,19.32
2023-07-21T18:22:48.161Z,19.27
2023-07-21T18:25:16.368Z,19.30
2023-07-21T18:27:43.428Z,19.28
2023-07-21T18:30:11.513Z,19.22
2023-07-21T18:32:38.561Z,19.20
2023-07-21T18:35:06.108Z,19.13
2023-07-21T18:37:32.656Z,19.11
2023-07-21T18:40:02.674Z,19.07
2023-07-21T18:42:29.581Z,18.99
2023-07-21T18:44:56.016Z,18.92
2023-07-21T18:47:22.585Z,18.91
2023-07-21T18:49:49.109Z,18.85
2023-07-21T18:52:15.828Z,18.84
2023-07-21T18:54:42.349Z,18.82
2023-07-21T18:57:08.842Z,18.78
2023-07-21T18:59:35.304Z,18.76
2023-07-21T19:02:02.642Z,18.74
2023-07-21T19:04:29.744Z,18.74
2023-07-21T19:06:56.137Z,18.75
2023-07-21T19:09:23.021Z,18.77
2023-07-21T19:11:52.537Z,18.76
2023-07-21T19:14:19.896Z,18.69
2023-07-21T19:16:46.462Z,18.70
2023-07-21T19:19:12.927Z,18.58
2023-07-21T19:21:39.349Z,18.46
2023-07-21T19:24:05.984Z,18.46
2023-07-21T19:26:32.433Z,18.27
2023-07-21T19:28:58.875Z,18.21
2023-07-21T19:31:25.531Z,18.09
2023-07-21T19:33:52.183Z,18.04
2023-07-21T19:36:18.685Z,17.82
2023-07-21T19:38:45.132Z,17.70
2023-07-21T19:41:14.607Z,17.45
2023-07-21T19:43:41.075Z,17.25
2023-07-21T19:46:13.311Z,17.02
2023-07-21T19:48:40.001Z,16.83
2023-07-21T19:51:14.243Z,16.71
2023-07-21T19:53:42.071Z,16.52
2023-07-21T19:56:16.039Z,16.42
2023-07-21T19:58:42.814Z,16.38
